createdAt,value
2022-08-10T00:00:51.568Z,14.34
2022-08-10T00:01:54.553Z,14.30
2022-08-10T00:03:00.575Z,14.28
2022-08-10T00:04:02.896Z,14.26
2022-08-10T00:05:05.483Z,14.26
2022-08-10T00:06:07.311Z,14.26
2022-08-10T00:07:09.025Z,14.26
2022-08-10T00:08:10.731Z,14.25
2022-08-10T00:09:12.498Z,14.26
2022-08-10T00:10:16.363Z,14.26
2022-08-10T00:11:18.196Z,14.26
2022-08-10T00:12:20.162Z,14.26
2022-08-10T00:13:23.343Z,14.27
2022-08-10T00:14:25.040Z,14.28
2022-08-10T00:15:53.032Z,14.28
2022-08-10T00:16:49.165Z,14.26
2022-08-10T00:17:50.805Z,14.23
2022-08-10T00:18:52.449Z,14.22
2022-08-10T00:20:04.078Z,14.22
2022-08-10T00:21:10.801Z,14.21
2022-08-10T00:22:12.483Z,14.20
2022-08-10T00:23:18.975Z,14.19
2022-08-10T00:24:20.633Z,14.19
2022-08-10T00:25:22.306Z,14.19
2022-08-10T00:26:24.000Z,14.18
2022-08-10T00:28:00.840Z,14.18
2022-08-10T00:28:48.733Z,14.21
2022-08-10T00:29:50.595Z,14.24
2022-08-10T00:30:52.647Z,14.25
2022-08-10T00:31:57.679Z,14.26
2022-08-10T00:33:01.074Z,14.28
2022-08-10T00:34:02.814Z,14.31
2022-08-10T00:35:05.184Z,14.33
2022-08-10T00:36:07.069Z,14.35
2022-08-10T00:37:08.904Z,14.35
2022-08-10T00:38:10.741Z,14.34
2022-08-10T00:39:15.947Z,14.33
2022-08-10T00:40:18.386Z,14.32
2022-08-10T00:41:37.081Z,14.30
2022-08-10T00:42:38.782Z,14.29
2022-08-10T00:43:40.492Z,14.28
2022-08-10T00:44:47.827Z,14.27
2022-08-10T00:45:59.362Z,14.26
2022-08-10T00:47:02.160Z,14.25
2022-08-10T00:48:04.060Z,14.26
2022-08-10T00:49:06.022Z,14.27
2022-08-10T00:50:09.207Z,14.27
2022-08-10T00:51:11.998Z,14.29
2022-08-10T00:52:16.786Z,14.29
2022-08-10T00:53:18.624Z,14.30
2022-08-10T00:54:24.076Z,14.29
2022-08-10T00:55:27.486Z,14.29
2022-08-10T00:57:14.353Z,14.27
2022-08-10T00:57:55.343Z,14.26
2022-08-10T00:58:57.456Z,14.25
2022-08-10T01:00:00.452Z,14.25
2022-08-10T01:01:02.911Z,14.24
2022-08-10T01:02:08.314Z,14.22
2022-08-10T01:03:13.604Z,14.19
2022-08-10T01:04:40.206Z,14.18
2022-08-10T01:05:52.160Z,14.17
2022-08-10T01:07:22.104Z,14.17
2022-08-10T01:08:40.330Z,14.13
2022-08-10T01:09:55.543Z,14.09
2022-08-10T01:12:28.709Z,14.04
2022-08-10T01:13:20.677Z,13.97
2022-08-10T01:14:35.247Z,13.95
2022-08-10T01:15:51.320Z,13.93
2022-08-10T01:17:03.020Z,13.91
2022-08-10T01:18:08.084Z,13.92
2022-08-10T01:19:42.734Z,13.93
2022-08-10T01:21:14.652Z,13.94
2022-08-10T01:22:29.124Z,13.95
2022-08-10T01:23:45.920Z,13.95
2022-08-10T01:24:56.459Z,13.94
2022-08-10T01:26:12.479Z,13.92
2022-08-10T01:27:34.346Z,13.89
2022-08-10T01:29:03.594Z,13.87
2022-08-10T01:30:09.347Z,13.85
2022-08-10T01:31:20.077Z,13.84
2022-08-10T01:32:31.419Z,13.83
2022-08-10T01:34:02.389Z,13.81
2022-08-10T01:35:33.776Z,13.82
2022-08-10T01:36:45.020Z,13.85
2022-08-10T01:38:03.364Z,13.88
2022-08-10T01:39:07.949Z,13.90
2022-08-10T01:40:13.785Z,13.90
2022-08-10T01:41:46.137Z,13.88
2022-08-10T01:42:51.255Z,13.84
2022-08-10T01:44:07.044Z,13.82
2022-08-10T01:45:13.054Z,13.80
2022-08-10T01:46:17.110Z,13.79
2022-08-10T01:47:42.392Z,13.78
2022-08-10T01:48:51.998Z,13.78
2022-08-10T01:50:03.232Z,13.80
2022-08-10T01:51:08.205Z,13.80
2022-08-10T01:52:10.519Z,13.80
2022-08-10T01:53:41.258Z,13.81
2022-08-10T01:54:45.671Z,13.83
2022-08-10T01:55:49.914Z,13.86
2022-08-10T01:56:57.030Z,13.89
2022-08-10T01:58:03.529Z,13.90
2022-08-10T01:59:15.626Z,13.92
2022-08-10T02:00:19.023Z,13.93
2022-08-10T02:01:25.723Z,13.94
2022-08-10T02:02:31.685Z,13.94
2022-08-10T02:04:04.684Z,13.94
2022-08-10T02:05:05.184Z,13.95
2022-08-10T02:06:12.624Z,13.95
2022-08-10T02:07:19.919Z,13.96
2022-08-10T02:08:24.874Z,13.96
2022-08-10T02:09:31.714Z,13.96
2022-08-10T02:10:37.557Z,13.95
2022-08-10T02:11:55.704Z,13.93
2022-08-10T02:13:04.076Z,13.92
2022-08-10T02:14:08.962Z,13.92
2022-08-10T02:15:16.571Z,13.90
2022-08-10T02:16:23.525Z,13.89
2022-08-10T02:17:59.563Z,13.86
2022-08-10T02:18:55.146Z,13.85
2022-08-10T02:20:03.407Z,13.84
2022-08-10T02:21:08.194Z,13.83
2022-08-10T02:22:45.927Z,13.82
2022-08-10T02:23:39.687Z,13.81
2022-08-10T02:24:45.210Z,13.82
2022-08-10T02:25:50.234Z,13.83
2022-08-10T02:26:59.734Z,13.83
2022-08-10T02:28:05.938Z,13.83
2022-08-10T02:29:11.603Z,13.83
2022-08-10T02:30:14.117Z,13.83
2022-08-10T02:31:23.340Z,13.82
2022-08-10T02:32:38.305Z,13.81
2022-08-10T02:33:57.439Z,13.81
2022-08-10T02:35:04.185Z,13.79
2022-08-10T02:36:11.926Z,13.79
2022-08-10T02:37:14.936Z,13.79
2022-08-10T02:38:23.352Z,13.78
2022-08-10T02:39:45.031Z,13.78
2022-08-10T02:42:18.242Z,13.78
2022-08-10T02:45:23.509Z,13.78
2022-08-10T02:45:23.852Z,13.77
2022-08-10T02:45:30.876Z,13.77
2022-08-10T02:46:41.866Z,13.77
2022-08-10T02:48:06.624Z,13.76
2022-08-10T02:49:18.586Z,13.76
2022-08-10T02:50:35.901Z,13.75
2022-08-10T02:52:06.407Z,13.74
2022-08-10T02:53:55.013Z,13.74
2022-08-10T02:55:17.722Z,13.74
2022-08-10T02:56:28.530Z,13.74
2022-08-10T02:57:38.761Z,13.75
2022-08-10T02:59:40.133Z,13.76
2022-08-10T03:00:50.792Z,13.78
2022-08-10T03:01:59.203Z,13.77
2022-08-10T03:03:05.722Z,13.79
2022-08-10T03:04:17.575Z,13.81
2022-08-10T03:05:20.313Z,13.81
2022-08-10T03:06:29.646Z,13.80
2022-08-10T03:07:43.479Z,13.81
2022-08-10T03:08:49.194Z,13.83
2022-08-10T03:09:54.787Z,13.84
2022-08-10T03:11:01.238Z,13.85
2022-08-10T03:12:37.427Z,13.87
2022-08-10T03:13:32.306Z,13.88
2022-08-10T03:14:37.403Z,13.89
2022-08-10T03:15:41.122Z,13.90
2022-08-10T03:16:46.179Z,13.91
2022-08-10T03:17:57.977Z,13.91
2022-08-10T03:19:04.460Z,13.92
2022-08-10T03:20:38.245Z,13.93
2022-08-10T03:21:31.739Z,13.93
2022-08-10T03:22:36.378Z,13.94
2022-08-10T03:23:41.289Z,13.94
2022-08-10T03:24:44.869Z,13.95
2022-08-10T03:25:52.589Z,13.95
2022-08-10T03:26:57.846Z,13.96
2022-08-10T03:28:01.107Z,13.96
2022-08-10T03:29:06.106Z,13.96
2022-08-10T03:30:27.405Z,13.97
2022-08-10T03:31:32.930Z,14.00
2022-08-10T03:32:36.641Z,14.02
2022-08-10T03:33:43.661Z,14.03
2022-08-10T03:34:46.103Z,14.02
2022-08-10T03:36:40.545Z,14.03
2022-08-10T03:37:10.499Z,14.05
2022-08-10T03:38:12.324Z,14.05
2022-08-10T03:39:14.470Z,14.05
2022-08-10T03:40:16.350Z,14.06
2022-08-10T03:41:24.933Z,14.07
2022-08-10T03:42:30.370Z,14.07
2022-08-10T03:43:34.082Z,14.06
2022-08-10T03:44:37.838Z,14.06
2022-08-10T03:45:55.136Z,14.05
2022-08-10T03:47:01.081Z,14.04
2022-08-10T03:48:05.600Z,14.04
2022-08-10T03:49:09.228Z,14.03
2022-08-10T03:50:28.092Z,14.02
2022-08-10T03:51:36.437Z,14.00
2022-08-10T03:52:39.351Z,13.98
2022-08-10T03:54:05.589Z,13.98
2022-08-10T03:55:04.122Z,13.97
2022-08-10T03:56:28.528Z,13.95
2022-08-10T03:57:30.139Z,13.94
2022-08-10T03:58:32.301Z,13.93
2022-08-10T03:59:36.209Z,13.92
2022-08-10T04:00:38.949Z,13.91
2022-08-10T04:02:46.664Z,13.90
2022-08-10T04:03:08.185Z,13.89
2022-08-10T04:04:11.806Z,13.88
2022-08-10T04:05:16.846Z,13.90
2022-08-10T04:06:18.774Z,13.90
2022-08-10T04:07:20.968Z,13.91
2022-08-10T04:08:22.934Z,13.92
2022-08-10T04:09:43.017Z,13.93
2022-08-10T04:10:52.162Z,13.94
2022-08-10T04:11:53.921Z,13.96
2022-08-10T04:12:56.302Z,13.97
2022-08-10T04:14:00.750Z,13.98
2022-08-10T04:15:02.863Z,14.01
2022-08-10T04:16:07.536Z,14.01
2022-08-10T04:17:13.834Z,14.03
2022-08-10T04:18:16.149Z,14.06
2022-08-10T04:19:19.639Z,14.09
2022-08-10T04:20:35.586Z,14.12
2022-08-10T04:21:43.047Z,14.15
2022-08-10T04:22:53.488Z,14.19
2022-08-10T04:24:00.904Z,14.22
2022-08-10T04:25:05.669Z,14.25
2022-08-10T04:26:07.791Z,14.28
2022-08-10T04:27:10.070Z,14.32
2022-08-10T04:28:12.868Z,14.34
2022-08-10T04:29:15.075Z,14.38
2022-08-10T04:30:17.612Z,14.41
2022-08-10T04:31:21.093Z,14.44
2022-08-10T04:32:25.079Z,14.46
2022-08-10T04:33:31.813Z,14.49
2022-08-10T04:34:35.434Z,14.51
2022-08-10T04:35:39.052Z,14.55
2022-08-10T04:36:42.339Z,14.58
2022-08-10T04:37:47.784Z,14.61
2022-08-10T04:38:51.579Z,14.63
2022-08-10T04:39:53.914Z,14.66
2022-08-10T04:40:56.950Z,14.69
2022-08-10T04:41:59.171Z,14.72
2022-08-10T04:43:10.879Z,14.74
2022-08-10T04:44:14.352Z,14.78
2022-08-10T04:45:16.414Z,14.81
2022-08-10T04:46:55.530Z,14.83
2022-08-10T04:48:00.366Z,14.86
2022-08-10T04:49:02.217Z,14.89
2022-08-10T04:50:07.498Z,14.91
2022-08-10T04:51:17.940Z,14.93
2022-08-10T04:52:21.250Z,14.95
2022-08-10T04:53:27.202Z,14.96
2022-08-10T04:54:29.823Z,14.99
2022-08-10T04:55:31.650Z,15.01
2022-08-10T04:56:36.318Z,15.03
2022-08-10T04:57:38.071Z,15.05
2022-08-10T04:58:39.844Z,15.05
2022-08-10T04:59:41.481Z,15.09
2022-08-10T05:00:43.276Z,15.10
2022-08-10T05:02:27.140Z,15.12
2022-08-10T05:03:06.829Z,15.14
2022-08-10T05:04:34.384Z,15.15
2022-08-10T05:05:30.361Z,15.19
2022-08-10T05:06:32.290Z,15.20
2022-08-10T05:07:53.931Z,15.21
2022-08-10T05:08:55.983Z,15.24
2022-08-10T05:10:04.039Z,15.26
2022-08-10T05:11:08.775Z,15.28
2022-08-10T05:12:10.590Z,15.30
2022-08-10T05:13:12.281Z,15.33
2022-08-10T05:14:14.035Z,15.35
2022-08-10T05:15:18.214Z,15.38
2022-08-10T05:16:31.587Z,15.41
2022-08-10T05:17:35.969Z,15.45
2022-08-10T05:18:37.710Z,15.49
2022-08-10T05:20:04.086Z,15.53
2022-08-10T05:21:01.125Z,15.59
2022-08-10T05:22:05.183Z,15.63
2022-08-10T05:23:07.439Z,15.67
2022-08-10T05:24:09.133Z,15.71
2022-08-10T05:25:14.122Z,15.73
2022-08-10T05:26:16.451Z,15.76
2022-08-10T05:27:18.086Z,15.78
2022-08-10T05:28:19.735Z,15.81
2022-08-10T05:29:25.444Z,15.85
2022-08-10T05:30:27.512Z,15.91
2022-08-10T05:31:29.716Z,15.96
2022-08-10T05:32:55.306Z,16.00
2022-08-10T05:33:54.743Z,16.04
2022-08-10T05:34:56.510Z,16.05
2022-08-10T05:35:59.623Z,16.04
2022-08-10T05:37:02.462Z,16.06
2022-08-10T05:38:10.301Z,16.07
2022-08-10T05:39:16.134Z,16.08
2022-08-10T05:40:18.432Z,16.09
2022-08-10T05:41:20.605Z,16.08
2022-08-10T05:42:23.807Z,16.06
2022-08-10T05:43:25.926Z,16.04
2022-08-10T05:44:28.644Z,16.03
2022-08-10T05:45:30.482Z,16.05
2022-08-10T05:46:32.196Z,16.09
2022-08-10T05:48:54.829Z,16.15
2022-08-10T05:49:00.561Z,16.23
2022-08-10T05:50:03.678Z,16.27
2022-08-10T05:51:07.407Z,16.30
2022-08-10T05:52:09.420Z,16.30
2022-08-10T05:53:59.189Z,16.32
2022-08-10T05:54:34.364Z,16.34
2022-08-10T05:55:36.265Z,16.37
2022-08-10T05:56:55.133Z,16.40
2022-08-10T05:58:01.029Z,16.43
2022-08-10T05:59:02.869Z,16.47
2022-08-10T06:00:36.220Z,16.50
2022-08-10T06:01:39.133Z,16.54
2022-08-10T06:02:44.994Z,16.58
2022-08-10T06:03:54.093Z,16.62
2022-08-10T06:04:59.238Z,16.68
2022-08-10T06:06:04.195Z,16.76
2022-08-10T06:07:07.925Z,16.82
2022-08-10T06:08:20.535Z,16.88
2022-08-10T06:09:25.845Z,16.94
2022-08-10T06:10:32.096Z,16.97
2022-08-10T06:12:28.064Z,16.99
2022-08-10T06:13:27.035Z,17.03
2022-08-10T06:14:59.514Z,17.10
2022-08-10T06:16:09.018Z,17.12
2022-08-10T06:17:12.115Z,17.15
2022-08-10T06:18:15.462Z,17.18
2022-08-10T06:19:17.876Z,17.22
2022-08-10T06:20:19.712Z,17.25
2022-08-10T06:21:21.858Z,17.26
2022-08-10T06:22:25.588Z,17.28
2022-08-10T06:23:30.470Z,17.33
2022-08-10T06:25:04.571Z,17.39
2022-08-10T06:26:11.421Z,17.45
2022-08-10T06:27:15.614Z,17.50
2022-08-10T06:28:20.823Z,17.55
2022-08-10T06:29:24.738Z,17.59
2022-08-10T06:30:29.479Z,17.60
2022-08-10T06:31:47.655Z,17.59
2022-08-10T06:32:56.696Z,17.61
2022-08-10T06:34:01.406Z,17.64
2022-08-10T06:35:08.277Z,17.65
2022-08-10T06:36:12.489Z,17.67
2022-08-10T06:37:19.221Z,17.67
2022-08-10T06:38:26.616Z,17.69
2022-08-10T06:39:34.148Z,17.68
2022-08-10T06:40:43.422Z,17.71
2022-08-10T06:42:14.934Z,17.75
2022-08-10T06:43:18.569Z,17.77
2022-08-10T06:44:29.279Z,17.79
2022-08-10T06:45:41.275Z,17.82
2022-08-10T06:46:49.597Z,17.85
2022-08-10T06:48:02.344Z,17.92
2022-08-10T06:49:07.275Z,17.99
2022-08-10T06:50:55.985Z,18.05
2022-08-10T06:52:02.703Z,18.09
2022-08-10T06:53:12.537Z,18.09
2022-08-10T06:54:18.136Z,18.13
2022-08-10T06:55:39.838Z,18.20
2022-08-10T06:57:08.347Z,18.27
2022-08-10T06:58:13.128Z,18.33
2022-08-10T06:59:54.038Z,18.39
2022-08-10T07:00:57.072Z,18.44
2022-08-10T07:02:12.157Z,18.47
2022-08-10T07:03:18.935Z,18.48
2022-08-10T07:04:56.220Z,18.47
2022-08-10T07:06:02.114Z,18.46
2022-08-10T07:07:07.834Z,18.47
2022-08-10T07:08:12.532Z,18.48
2022-08-10T07:09:18.140Z,18.50
2022-08-10T07:10:22.689Z,18.54
2022-08-10T07:11:27.310Z,18.59
2022-08-10T07:12:34.392Z,18.66
2022-08-10T07:14:14.384Z,18.74
2022-08-10T07:15:03.485Z,18.79
2022-08-10T07:16:10.911Z,18.83
2022-08-10T07:17:16.737Z,18.84
2022-08-10T07:18:20.960Z,18.83
2022-08-10T07:19:25.508Z,18.86
2022-08-10T07:20:28.378Z,18.88
2022-08-10T07:21:32.562Z,18.90
2022-08-10T07:23:27.115Z,18.94
2022-08-10T07:24:00.981Z,19.06
2022-08-10T07:25:06.773Z,19.15
2022-08-10T07:26:09.933Z,19.20
2022-08-10T07:27:13.364Z,19.24
2022-08-10T07:28:17.828Z,19.29
2022-08-10T07:29:26.402Z,19.35
2022-08-10T07:30:46.054Z,19.39
2022-08-10T07:31:56.944Z,19.39
2022-08-10T07:33:02.239Z,19.40
2022-08-10T07:34:07.179Z,19.42
2022-08-10T07:35:13.531Z,19.42
2022-08-10T07:36:19.062Z,19.44
2022-08-10T07:37:25.037Z,19.45
2022-08-10T07:38:31.670Z,19.52
2022-08-10T07:40:02.669Z,19.60
2022-08-10T07:41:03.495Z,19.65
2022-08-10T07:42:09.997Z,19.64
2022-08-10T07:43:15.224Z,19.59
2022-08-10T07:44:19.393Z,19.57
2022-08-10T07:45:21.341Z,19.61
2022-08-10T07:46:28.238Z,19.66
2022-08-10T07:47:46.243Z,19.71
2022-08-10T07:49:16.803Z,19.80
2022-08-10T07:50:25.063Z,19.92
2022-08-10T07:51:31.128Z,20.01
2022-08-10T07:52:35.451Z,20.08
2022-08-10T07:53:43.754Z,20.13
2022-08-10T07:54:49.891Z,20.21
2022-08-10T07:56:03.554Z,20.31
2022-08-10T07:57:30.955Z,20.43
2022-08-10T07:58:51.881Z,20.50
2022-08-10T07:59:59.978Z,20.54
2022-08-10T08:01:01.829Z,20.55
2022-08-10T08:02:07.660Z,20.53
2022-08-10T08:03:13.330Z,20.45
2022-08-10T08:04:19.632Z,20.33
2022-08-10T08:05:29.932Z,20.29
2022-08-10T08:06:49.573Z,20.26
2022-08-10T08:07:53.899Z,20.25
2022-08-10T08:08:58.559Z,20.30
2022-08-10T08:10:03.001Z,20.38
2022-08-10T08:11:06.250Z,20.46
2022-08-10T08:12:11.066Z,20.49
2022-08-10T08:13:14.881Z,20.56
2022-08-10T08:14:19.085Z,20.61
2022-08-10T08:16:20.403Z,20.64
2022-08-10T08:16:51.646Z,20.67
2022-08-10T08:18:00.818Z,20.73
2022-08-10T08:19:26.431Z,20.81
2022-08-10T08:20:26.430Z,20.90
2022-08-10T08:24:07.380Z,21.09
2022-08-10T08:24:10.686Z,20.98
2022-08-10T08:24:30.487Z,21.18
2022-08-10T08:25:36.688Z,21.30
2022-08-10T08:26:39.231Z,21.40
2022-08-10T08:27:47.602Z,21.52
2022-08-10T08:28:51.108Z,21.64
2022-08-10T08:29:54.326Z,21.73
2022-08-10T08:30:58.894Z,21.77
2022-08-10T08:32:03.729Z,21.80
2022-08-10T08:33:09.757Z,21.82
2022-08-10T08:34:22.988Z,21.82
2022-08-10T08:35:26.766Z,21.84
2022-08-10T08:36:30.824Z,21.89
2022-08-10T08:38:31.781Z,21.94
2022-08-10T08:38:56.795Z,21.94
2022-08-10T08:39:58.689Z,21.90
2022-08-10T08:41:22.182Z,21.87
2022-08-10T08:42:42.575Z,21.84
2022-08-10T08:43:59.454Z,21.88
2022-08-10T08:45:23.329Z,21.90
2022-08-10T08:46:59.272Z,21.82
2022-08-10T08:48:11.408Z,21.82
2022-08-10T08:50:04.752Z,21.80
2022-08-10T08:51:01.738Z,21.84
2022-08-10T08:52:29.108Z,21.78
2022-08-10T08:54:07.931Z,21.51
2022-08-10T08:56:05.028Z,21.29
2022-08-10T08:57:22.929Z,21.30
2022-08-10T08:58:54.370Z,21.44
2022-08-10T09:00:14.425Z,21.58
2022-08-10T09:01:53.130Z,21.76
2022-08-10T09:03:28.430Z,21.87
2022-08-10T09:05:09.503Z,21.89
2022-08-10T09:06:45.776Z,21.98
2022-08-10T09:08:02.178Z,22.09
2022-08-10T09:09:35.574Z,22.14
2022-08-10T09:10:46.090Z,21.92
2022-08-10T09:12:08.838Z,21.70
2022-08-10T09:13:42.642Z,21.60
2022-08-10T09:15:05.884Z,21.66
2022-08-10T09:16:35.148Z,21.72
2022-08-10T09:17:59.850Z,21.63
2022-08-10T09:19:19.655Z,21.49
2022-08-10T09:20:45.807Z,21.57
2022-08-10T09:22:18.231Z,21.72
2022-08-10T09:24:20.205Z,21.97
2022-08-10T09:25:26.169Z,22.21
2022-08-10T09:26:42.948Z,22.28
2022-08-10T09:27:49.614Z,22.33
2022-08-10T09:29:12.302Z,22.45
2022-08-10T09:30:32.178Z,22.57
2022-08-10T09:32:55.002Z,22.63
2022-08-10T09:36:20.836Z,22.65
2022-08-10T09:36:24.065Z,22.67
2022-08-10T09:36:31.984Z,22.76
2022-08-10T09:38:01.937Z,22.81
2022-08-10T09:40:06.860Z,22.90
2022-08-10T09:41:16.350Z,22.96
2022-08-10T09:42:42.504Z,22.82
2022-08-10T09:44:01.799Z,22.53
2022-08-10T09:45:15.231Z,22.47
2022-08-10T09:46:46.908Z,22.48
2022-08-10T09:48:13.220Z,22.50
2022-08-10T09:49:54.829Z,22.49
2022-08-10T09:51:46.338Z,22.37
2022-08-10T09:53:10.956Z,22.39
2022-08-10T09:54:46.649Z,22.40
2022-08-10T09:56:29.735Z,22.51
2022-08-10T09:57:48.455Z,22.73
2022-08-10T09:59:27.262Z,22.86
2022-08-10T10:00:23.381Z,23.07
2022-08-10T10:02:03.457Z,23.21
2022-08-10T10:03:17.048Z,23.35
2022-08-10T10:04:33.244Z,23.48
2022-08-10T10:05:59.428Z,23.62
2022-08-10T10:07:10.599Z,23.77
2022-08-10T10:08:43.947Z,23.95
2022-08-10T10:10:07.660Z,24.19
2022-08-10T10:11:21.265Z,24.40
2022-08-10T10:13:09.246Z,24.47
2022-08-10T10:14:19.510Z,24.32
2022-08-10T10:15:33.788Z,24.13
2022-08-10T10:17:03.501Z,23.76
2022-08-10T10:18:19.901Z,23.25
2022-08-10T10:20:11.075Z,22.89
2022-08-10T10:21:54.748Z,22.50
2022-08-10T10:23:40.651Z,22.21
2022-08-10T10:24:52.734Z,21.97
2022-08-10T10:26:08.435Z,22.04
2022-08-10T10:27:47.987Z,22.24
2022-08-10T10:29:55.796Z,22.60
2022-08-10T10:31:16.822Z,22.96
2022-08-10T10:32:42.184Z,23.23
2022-08-10T10:34:02.189Z,23.48
2022-08-10T10:35:12.771Z,23.45
2022-08-10T10:36:17.745Z,23.29
2022-08-10T10:37:22.175Z,23.07
2022-08-10T10:38:47.203Z,22.74
2022-08-10T10:39:54.628Z,22.51
2022-08-10T10:41:15.057Z,22.26
2022-08-10T10:42:46.879Z,22.00
2022-08-10T10:44:27.483Z,21.74
2022-08-10T10:45:58.486Z,21.65
2022-08-10T10:47:26.152Z,21.81
2022-08-10T10:48:52.598Z,22.08
2022-08-10T10:50:22.536Z,22.37
2022-08-10T10:51:34.164Z,22.67
2022-08-10T10:53:03.105Z,22.94
2022-08-10T10:54:32.525Z,23.31
2022-08-10T10:56:14.312Z,23.65
2022-08-10T10:57:59.088Z,24.04
2022-08-10T10:59:53.533Z,24.46
2022-08-10T11:00:46.321Z,24.75
2022-08-10T11:02:01.075Z,24.95
2022-08-10T11:03:27.560Z,25.22
2022-08-10T11:05:03.232Z,25.37
2022-08-10T11:06:40.611Z,25.48
2022-08-10T11:07:54.929Z,25.51
2022-08-10T11:09:03.474Z,25.62
2022-08-10T11:10:32.824Z,25.72
2022-08-10T11:12:00.760Z,25.83
2022-08-10T11:14:24.501Z,25.93
2022-08-10T11:15:10.109Z,26.14
2022-08-10T11:16:28.815Z,26.19
2022-08-10T11:17:39.047Z,26.16
2022-08-10T11:19:13.581Z,26.13
2022-08-10T11:20:25.918Z,26.21
2022-08-10T11:21:54.731Z,26.38
2022-08-10T11:23:22.263Z,26.54
2022-08-10T11:24:56.400Z,26.65
2022-08-10T11:26:10.594Z,26.77
2022-08-10T11:27:37.797Z,26.79
2022-08-10T11:28:54.360Z,26.62
2022-08-10T11:30:03.645Z,26.28
2022-08-10T11:31:33.738Z,26.11
2022-08-10T11:32:50.902Z,26.07
2022-08-10T11:34:47.546Z,26.15
2022-08-10T11:36:01.437Z,26.26
2022-08-10T11:37:15.302Z,26.42
2022-08-10T11:39:13.490Z,26.51
2022-08-10T11:40:24.907Z,26.67
2022-08-10T11:42:12.553Z,26.73
2022-08-10T11:43:26.234Z,26.86
2022-08-10T11:45:02.681Z,26.98
2022-08-10T11:46:33.726Z,27.17
2022-08-10T11:47:52.665Z,27.34
2022-08-10T11:49:10.788Z,27.39
2022-08-10T11:50:32.331Z,27.49
2022-08-10T11:51:49.075Z,27.61
2022-08-10T11:53:09.908Z,27.83
2022-08-10T11:54:25.961Z,28.14
2022-08-10T11:55:32.927Z,28.38
2022-08-10T11:56:59.934Z,28.67
2022-08-10T11:58:31.120Z,28.80
2022-08-10T11:59:58.293Z,28.60
2022-08-10T12:01:07.038Z,28.43
2022-08-10T12:02:14.659Z,28.05
2022-08-10T12:03:19.449Z,27.58
2022-08-10T12:04:23.800Z,27.36
2022-08-10T12:05:51.638Z,27.25
2022-08-10T12:06:59.368Z,27.22
2022-08-10T12:08:54.807Z,27.03
2022-08-10T12:10:10.939Z,27.15
2022-08-10T12:10:52.064Z,27.34
2022-08-10T12:11:55.036Z,27.56
2022-08-10T12:13:15.377Z,27.76
2022-08-10T12:14:26.097Z,27.92
2022-08-10T12:15:40.712Z,28.01
2022-08-10T12:16:49.025Z,28.16
2022-08-10T12:17:57.564Z,28.29
2022-08-10T12:19:05.649Z,28.39
2022-08-10T12:20:09.628Z,28.52
2022-08-10T12:21:37.968Z,28.55
2022-08-10T12:22:57.426Z,28.44
2022-08-10T12:24:12.808Z,28.54
2022-08-10T12:25:57.630Z,28.82
2022-08-10T12:27:13.311Z,29.11
2022-08-10T12:28:49.284Z,29.22
2022-08-10T12:29:59.091Z,29.33
2022-08-10T12:31:03.665Z,29.15
2022-08-10T12:32:25.492Z,29.09
2022-08-10T12:34:02.566Z,29.17
2022-08-10T12:35:17.975Z,29.23
2022-08-10T12:36:32.345Z,29.27
2022-08-10T12:38:07.076Z,29.08
2022-08-10T12:39:28.228Z,28.53
2022-08-10T12:40:37.301Z,27.93
2022-08-10T12:41:57.076Z,27.38
2022-08-10T12:44:07.806Z,26.80
2022-08-10T12:44:41.513Z,26.34
2022-08-10T12:46:06.565Z,26.02
2022-08-10T12:47:22.610Z,25.65
2022-08-10T12:48:36.692Z,25.35
2022-08-10T12:50:23.779Z,25.14
2022-08-10T12:51:32.460Z,24.85
2022-08-10T12:52:50.668Z,24.64
2022-08-10T12:54:11.331Z,24.37
2022-08-10T12:55:14.657Z,24.13
2022-08-10T12:56:41.379Z,23.99
2022-08-10T12:57:43.909Z,23.83
2022-08-10T12:59:00.020Z,23.74
2022-08-10T13:00:06.558Z,23.83
2022-08-10T13:01:23.391Z,23.83
2022-08-10T13:02:29.942Z,23.98
2022-08-10T13:04:21.297Z,24.44
2022-08-10T13:05:02.437Z,25.15
2022-08-10T13:06:07.221Z,25.68
2022-08-10T13:07:10.677Z,26.09
2022-08-10T13:08:52.947Z,26.52
2022-08-10T13:10:05.461Z,26.92
2022-08-10T13:12:18.256Z,27.17
2022-08-10T13:12:40.566Z,27.24
2022-08-10T13:13:49.372Z,26.98
2022-08-10T13:14:59.771Z,26.68
2022-08-10T13:16:03.232Z,26.35
2022-08-10T13:17:08.046Z,25.93
2022-08-10T13:18:18.428Z,25.70
2022-08-10T13:19:22.644Z,25.89
2022-08-10T13:20:29.889Z,26.24
2022-08-10T13:21:37.773Z,26.67
2022-08-10T13:22:42.515Z,27.04
2022-08-10T13:24:04.126Z,27.42
2022-08-10T13:25:10.105Z,27.81
2022-08-10T13:26:17.658Z,28.03
2022-08-10T13:27:59.796Z,28.27
2022-08-10T13:28:55.042Z,28.73
2022-08-10T13:30:05.270Z,29.11
2022-08-10T13:31:16.998Z,29.31
2022-08-10T13:32:30.520Z,29.46
2022-08-10T13:34:40.944Z,29.53
2022-08-10T13:35:00.946Z,29.54
2022-08-10T13:36:04.105Z,29.53
2022-08-10T13:37:09.360Z,29.52
2022-08-10T13:38:20.241Z,29.47
2022-08-10T13:39:26.018Z,29.52
2022-08-10T13:40:31.222Z,29.59
2022-08-10T13:41:39.724Z,29.54
2022-08-10T13:42:42.293Z,29.39
2022-08-10T13:43:52.509Z,29.23
2022-08-10T13:44:58.629Z,29.26
2022-08-10T13:46:02.905Z,29.06
2022-08-10T13:47:06.951Z,29.07
2022-08-10T13:48:18.539Z,29.10
2022-08-10T13:49:21.896Z,29.25
2022-08-10T13:50:34.969Z,29.44
2022-08-10T13:51:53.823Z,29.52
2022-08-10T13:53:01.629Z,29.62
2022-08-10T13:54:07.511Z,29.77
2022-08-10T13:55:15.969Z,29.97
2022-08-10T13:56:21.409Z,30.18
2022-08-10T13:57:33.671Z,30.25
2022-08-10T13:58:41.509Z,30.20
2022-08-10T14:00:36.650Z,30.06
2022-08-10T14:01:17.296Z,29.97
2022-08-10T14:02:27.135Z,29.90
2022-08-10T14:03:37.723Z,29.81
2022-08-10T14:04:44.932Z,29.72
2022-08-10T14:05:52.533Z,29.68
2022-08-10T14:06:59.342Z,29.67
2022-08-10T14:08:04.314Z,29.67
2022-08-10T14:09:11.550Z,29.65
2022-08-10T14:10:16.656Z,29.55
2022-08-10T14:11:21.293Z,29.45
2022-08-10T14:12:33.485Z,29.39
2022-08-10T14:13:40.800Z,29.42
2022-08-10T14:14:45.225Z,29.42
2022-08-10T14:15:57.349Z,29.47
2022-08-10T14:17:01.811Z,29.57
2022-08-10T14:18:07.013Z,29.60
2022-08-10T14:19:16.569Z,29.60
2022-08-10T14:20:21.874Z,29.58
2022-08-10T14:21:24.528Z,29.55
2022-08-10T14:22:33.804Z,29.72
2022-08-10T14:23:42.528Z,29.98
2022-08-10T14:25:06.541Z,30.12
2022-08-10T14:26:11.073Z,30.12
2022-08-10T14:27:22.719Z,30.21
2022-08-10T14:28:34.257Z,30.13
2022-08-10T14:29:49.298Z,29.62
2022-08-10T14:31:11.789Z,29.24
2022-08-10T14:32:18.593Z,28.74
2022-08-10T14:33:24.467Z,28.46
2022-08-10T14:36:16.406Z,27.99
2022-08-10T14:36:18.995Z,27.28
2022-08-10T14:37:38.052Z,26.71
2022-08-10T14:38:45.125Z,26.52
2022-08-10T14:39:58.639Z,26.27
2022-08-10T14:41:04.792Z,25.96
2022-08-10T14:42:26.855Z,25.76
2022-08-10T14:43:41.328Z,25.45
2022-08-10T14:44:55.454Z,25.59
2022-08-10T14:46:04.078Z,25.41
2022-08-10T14:47:52.275Z,25.56
2022-08-10T14:48:39.820Z,25.85
2022-08-10T14:49:58.218Z,26.19
2022-08-10T14:51:03.020Z,26.36
2022-08-10T14:52:06.424Z,26.42
2022-08-10T14:53:15.368Z,26.42
2022-08-10T14:54:23.464Z,26.57
2022-08-10T14:55:29.116Z,26.71
2022-08-10T14:56:33.680Z,26.83
2022-08-10T14:58:19.292Z,26.98
2022-08-10T14:59:07.622Z,27.23
2022-08-10T15:00:29.444Z,27.40
2022-08-10T15:02:00.623Z,27.59
2022-08-10T15:03:11.150Z,27.82
2022-08-10T15:04:32.902Z,28.05
2022-08-10T15:05:39.583Z,28.24
2022-08-10T15:06:59.787Z,28.44
2022-08-10T15:08:03.509Z,28.75
2022-08-10T15:09:19.765Z,28.89
2022-08-10T15:10:24.264Z,28.89
2022-08-10T15:12:15.514Z,28.98
2022-08-10T15:12:58.720Z,29.16
2022-08-10T15:14:38.739Z,29.26
2022-08-10T15:15:28.997Z,29.68
2022-08-10T15:16:34.264Z,30.10
2022-08-10T15:17:39.630Z,30.20
2022-08-10T15:18:58.171Z,30.13
2022-08-10T15:20:13.481Z,29.97
2022-08-10T15:21:17.817Z,29.73
2022-08-10T15:22:37.118Z,29.58
2022-08-10T15:24:05.123Z,29.54
2022-08-10T15:25:18.022Z,29.58
2022-08-10T15:26:27.519Z,29.78
2022-08-10T15:27:53.390Z,29.89
2022-08-10T15:29:23.634Z,29.86
2022-08-10T15:30:31.373Z,30.00
2022-08-10T15:31:56.247Z,30.07
2022-08-10T15:34:02.606Z,30.36
2022-08-10T15:35:06.146Z,30.54
2022-08-10T15:36:32.972Z,30.72
2022-08-10T15:37:39.892Z,30.79
2022-08-10T15:38:46.343Z,30.98
2022-08-10T15:40:24.959Z,31.05
2022-08-10T15:41:21.167Z,30.79
2022-08-10T15:42:58.449Z,30.61